sensor_id;sensor_type;location;lat;lon;timestamp;pressure;altitude;pressure_sealevel;temperature;humidity
18765;BME280;9511;54.242;12.448;2023-04-08T03:06:10;102321.38;;;3.81;100.00
18765;BME280;9511;54.242;12.448;2023-04-08T03:08:37;102315.59;;;3.85;100.00
18765;BME280;9511;54.242;12.448;2023-04-08T03:11:05;102323.19;;;3.82;100.00
18765;BME280;9511;54.242;12.448;2023-04-08T03:13:32;102318.41;;;3.88;100.00
18765;BME280;9511;54.242;12.448;2023-04-08T03:16:00;102333.00;;;3.84;100.00
18765;BME280;9511;54.242;12.448;2023-04-08T03:18:27;102329.56;;;3.85;100.00
18765;BME280;9511;54.242;12.448;2023-04-08T03:20:54;102333.00;;;3.84;100.00
18765;BME280;9511;54.242;12.448;2023-04-08T03:23:23;102325.00;;;3.83;100.00
18765;BME280;9511;54.242;12.448;2023-04-08T03:25:50;102329.31;;;3.82;100.00
18765;BME280;9511;54.242;12.448;2023-04-08T03:28:17;102331.28;;;3.85;100.00
18765;BME280;9511;54.242;12.448;2023-04-08T03:30:45;102329.22;;;3.81;100.00
18765;BME280;9511;54.242;12.448;2023-04-08T03:33:12;102327.50;;;3.81;100.00
18765;BME280;9511;54.242;12.448;2023-04-08T03:35:39;102329.31;;;3.82;100.00
18765;BME280;9511;54.242;12.448;2023-04-08T03:38:06;102327.50;;;3.81;100.00
18765;BME280;9511;54.242;12.448;2023-04-08T03:40:35;102329.31;;;3.82;100.00
18765;BME280;9511;54.242;12.448;2023-04-08T03:43:02;102328.53;;;3.83;100.00
18765;BME280;9511;54.242;12.448;2023-04-08T03:45:30;102327.75;;;3.84;100.00
18765;BME280;9511;54.242;12.448;2023-04-08T03:47:57;102334.56;;;3.82;100.00
18765;BME280;9511;54.242;12.448;2023-04-08T03:50:25;102340.59;;;3.81;100.00
18765;BME280;9511;54.242;12.448;2023-04-08T03:52:52;102337.19;;;3.82;100.00
18765;BME280;9511;54.242;12.448;2023-04-08T03:55:19;102336.38;;;3.83;100.00
18765;BME280;9511;54.242;12.448;2023-04-08T03:57:48;102346.19;;;3.86;100.00
18765;BME280;9511;54.242;12.448;2023-04-08T04:00:15;102347.66;;;3.82;100.00
18765;BME280;9511;54.242;12.448;2023-04-08T04:02:44;102350.38;;;3.84;100.00
18765;BME280;9511;54.242;12.448;2023-04-08T04:05:11;102351.84;;;3.80;100.00
18765;BME280;9511;54.242;12.448;2023-04-08T04:07:38;102346.84;;;3.83;100.00
18765;BME280;9511;54.242;12.448;2023-04-08T04:10:07;102355.75;;;3.85;100.00
18765;BME280;9511;54.242;12.448;2023-04-08T04:12:35;102353.94;;;3.84;100.00
18765;BME280;9511;54.242;12.448;2023-04-08T04:15:04;102359.47;;;3.77;100.00
18765;BME280;9511;54.242;12.448;2023-04-08T04:17:32;102357.63;;;3.76;100.00
18765;BME280;9511;54.242;12.448;2023-04-08T04:19:59;102366.72;;;3.69;100.00
18765;BME280;9511;54.242;12.448;2023-04-08T04:22:26;102355.47;;;3.70;100.00
18765;BME280;9511;54.242;12.448;2023-04-08T04:24:53;102359.34;;;3.76;100.00
18765;BME280;9511;54.242;12.448;2023-04-08T04:27:21;102366.19;;;3.73;100.00
18765;BME280;9511;54.242;12.448;2023-04-08T04:29:48;102358.75;;;3.68;100.00
18765;BME280;9511;54.242;12.448;2023-04-08T04:32:16;102361.16;;;3.77;100.00
18765;BME280;9511;54.242;12.448;2023-04-08T04:34:44;102365.94;;;3.70;100.00
18765;BME280;9511;54.242;12.448;2023-04-08T04:37:11;102367.63;;;3.70;100.00
18765;BME280;9511;54.242;12.448;2023-04-08T04:39:38;102359.78;;;3.70;100.00
18765;BME280;9511;54.242;12.448;2023-04-08T04:42:06;102368.09;;;3.76;100.00
18765;BME280;9511;54.242;12.448;2023-04-08T04:44:33;102366.63;;;3.68;100.00
18765;BME280;9511;54.242;12.448;2023-04-08T04:47:00;102374.97;;;4.19;100.00
18765;BME280;9511;54.242;12.448;2023-04-08T04:49:29;102371.25;;;4.51;100.00
18765;BME280;9511;54.242;12.448;2023-04-08T04:51:56;102386.84;;;4.49;100.00
18765;BME280;9511;54.242;12.448;2023-04-08T04:54:23;102386.16;;;4.40;100.00
18765;BME280;9511;54.242;12.448;2023-04-08T04:56:51;102381.25;;;4.33;100.00
18765;BME280;9511;54.242;12.448;2023-04-08T04:59:18;102385.25;;;4.51;100.00
18765;BME280;9511;54.242;12.448;2023-04-08T05:01:45;102385.63;;;4.68;100.00
18765;BME280;9511;54.242;12.448;2023-04-08T05:04:12;102375.47;;;4.72;100.00
18765;BME280;9511;54.242;12.448;2023-04-08T05:06:41;102386.88;;;4.73;100.00
18765;BME280;9511;54.242;12.448;2023-04-08T05:09:08;102387.31;;;4.56;100.00
18765;BME280;9511;54.242;12.448;2023-04-08T05:11:35;102393.69;;;4.47;100.00
18765;BME280;9511;54.242;12.448;2023-04-08T05:14:03;102400.31;;;4.42;100.00
18765;BME280;9511;54.242;12.448;2023-04-08T05:16:30;102405.63;;;4.32;100.00
18765;BME280;9511;54.242;12.448;2023-04-08T05:18:57;102403.44;;;4.26;100.00
18765;BME280;9511;54.242;12.448;2023-04-08T05:21:24;102413.47;;;4.20;100.00
18765;BME280;9511;54.242;12.448;2023-04-08T05:23:53;102412.72;;;4.11;100.00
18765;BME280;9511;54.242;12.448;2023-04-08T05:26:21;102407.03;;;4.05;100.00
18765;BME280;9511;54.242;12.448;2023-04-08T05:28:48;102412.94;;;4.03;100.00
18765;BME280;9511;54.242;12.448;2023-04-08T05:31:16;102416.13;;;3.98;100.00
18765;BME280;9511;54.242;12.448;2023-04-08T05:33:44;102418.25;;;3.92;100.00
18765;BME280;9511;54.242;12.448;2023-04-08T05:36:11;102412.22;;;3.93;100.00
18765;BME280;9511;54.242;12.448;2023-04-08T05:38:39;102421.31;;;3.87;100.00
18765;BME280;9511;54.242;12.448;2023-04-08T05:41:09;102418.78;;;3.88;100.00
18765;BME280;9511;54.242;12.448;2023-04-08T05:43:36;102429.84;;;3.84;100.00
18765;BME280;9511;54.242;12.448;2023-04-08T05:46:07;102423.13;;;3.88;100.00
18765;BME280;9511;54.242;12.448;2023-04-08T05:48:35;102428.25;;;3.86;100.00
18765;BME280;9511;54.242;12.448;2023-04-08T05:51:03;102422.47;;;3.90;100.00
18765;BME280;9511;54.242;12.448;2023-04-08T05:53:30;102424.94;;;3.89;100.00
18765;BME280;9511;54.242;12.448;2023-04-08T05:55:57;102428.72;;;3.92;100.00
18765;BME280;9511;54.242;12.448;2023-04-08T05:58:26;102429.75;;;3.94;100.00
18765;BME280;9511;54.242;12.448;2023-04-08T06:00:53;102423.38;;;3.91;100.00
18765;BME280;9511;54.242;12.448;2023-04-08T06:03:21;102430.06;;;3.87;100.00
18765;BME280;9511;54.242;12.448;2023-04-08T06:05:48;102435.84;;;3.83;100.00
18765;BME280;9511;54.242;12.448;2023-04-08T06:08:15;102438.22;;;3.80;100.00
18765;BME280;9511;54.242;12.448;2023-04-08T06:10:48;102430.81;;;3.75;100.00
18765;BME280;9511;54.242;12.448;2023-04-08T06:13:16;102440.38;;;3.74;100.00
18765;BME280;9511;54.242;12.448;2023-04-08T06:15:46;102444.81;;;3.75;100.00
18765;BME280;9511;54.242;12.448;2023-04-08T06:18:15;102447.66;;;3.78;100.00
18765;BME280;9511;54.242;12.448;2023-04-08T06:20:42;102448.16;;;3.84;100.00
18765;BME280;9511;54.242;12.448;2023-04-08T06:23:09;102441.56;;;3.89;100.00
18765;BME280;9511;54.242;12.448;2023-04-08T06:25:37;102446.03;;;3.90;100.00
18765;BME280;9511;54.242;12.448;2023-04-08T06:28:04;102446.50;;;3.96;100.00
18765;BME280;9511;54.242;12.448;2023-04-08T06:30:32;102444.81;;;3.97;100.00
18765;BME280;9511;54.242;12.448;2023-04-08T06:33:00;102447.00;;;4.03;100.00
18765;BME280;9511;54.242;12.448;2023-04-08T06:35:28;102449.03;;;4.07;100.00
18765;BME280;9511;54.242;12.448;2023-04-08T06:37:55;102456.13;;;4.08;100.00
18765;BME280;9511;54.242;12.448;2023-04-08T06:40:22;102470.78;;;4.06;100.00
18765;BME280;9511;54.242;12.448;2023-04-08T06:42:50;102469.44;;;4.11;100.00
18765;BME280;9511;54.242;12.448;2023-04-08T06:45:35;102481.72;;;4.12;100.00
18765;BME280;9511;54.242;12.448;2023-04-08T06:48:04;102479.38;;;4.15;100.00
18765;BME280;9511;54.242;12.448;2023-04-08T06:50:33;102486.50;;;4.06;100.00
18765;BME280;9511;54.242;12.448;2023-04-08T06:53:01;102486.97;;;4.12;100.00
18765;BME280;9511;54.242;12.448;2023-04-08T06:55:28;102485.88;;;4.20;100.00
18765;BME280;9511;54.242;12.448;2023-04-08T06:57:55;102483.13;;;4.18;100.00
18765;BME280;9511;54.242;12.448;2023-04-08T07:00:22;102493.06;;;4.22;100.00
18765;BME280;9511;54.242;12.448;2023-04-08T07:02:50;102491.34;;;4.23;100.00
18765;BME280;9511;54.242;12.448;2023-04-08T07:05:19;102491.72;;;4.28;100.00
18765;BME280;9511;54.242;12.448;2023-04-08T07:07:46;102486.47;;;4.28;100.00
18765;BME280;9511;54.242;12.448;2023-04-08T07:10:13;102498.13;;;4.31;100.00
18765;BME280;9511;54.242;12.448;2023-04-08T07:12:41;102489.63;;;4.23;100.00
18765;BME280;9511;54.242;12.448;2023-04-08T07:15:09;102495.03;;;4.25;100.00
18765;BME280;9511;54.242;12.448;2023-04-08T07:17:36;102491.81;;;4.29;100.00
18765;BME280;9511;54.242;12.448;2023-04-08T07:20:05;102499.69;;;4.29;100.00
18765;BME280;9511;54.242;12.448;2023-04-08T07:22:34;102497.19;;;4.31;100.00
18765;BME280;9511;54.242;12.448;2023-04-08T07:25:01;102497.78;;;4.38;100.00
18765;BME280;9511;54.242;12.448;2023-04-08T07:27:29;102501.91;;;4.46;100.00
18765;BME280;9511;54.242;12.448;2023-04-08T07:29:56;102505.56;;;4.48;100.00
18765;BME280;9511;54.242;12.448;2023-04-08T07:32:24;102503.75;;;4.47;100.00
18765;BME280;9511;54.242;12.448;2023-04-08T07:34:53;102496.91;;;4.49;100.00
18765;BME280;9511;54.242;12.448;2023-04-08T07:37:21;102508.63;;;4.43;100.00
18765;BME280;9511;54.242;12.448;2023-04-08T07:39:49;102509.44;;;4.42;100.00
18765;BME280;9511;54.242;12.448;2023-04-08T07:42:16;102514.53;;;4.40;100.00
18765;BME280;9511;54.242;12.448;2023-04-08T07:44:44;102517.03;;;4.39;100.00
18765;BME280;9511;54.242;12.448;2023-04-08T07:47:11;102509.66;;;4.45;100.00
18765;BME280;9511;54.242;12.448;2023-04-08T07:49:39;102511.72;;;4.49;100.00
18765;BME280;9511;54.242;12.448;2023-04-08T07:52:06;102508.66;;;4.55;100.00
18765;BME280;9511;54.242;12.448;2023-04-08T07:54:33;102511.50;;;4.58;100.00
18765;BME280;9511;54.242;12.448;2023-04-08T07:57:02;102511.97;;;4.64;100.00
18765;BME280;9511;54.242;12.448;2023-04-08T07:59:31;102511.69;;;4.71;100.00
18765;BME280;9511;54.242;12.448;2023-04-08T08:01:58;102506.44;;;4.71;100.00
18765;BME280;9511;54.242;12.448;2023-04-08T08:04:25;102520.00;;;4.77;100.00
18765;BME280;9511;54.242;12.448;2023-04-08T08:06:52;102518.41;;;4.79;100.00
18765;BME280;9511;54.242;12.448;2023-04-08T08:09:20;102516.91;;;4.71;100.00
18765;BME280;9511;54.242;12.448;2023-04-08T08:11:47;102509.63;;;4.78;100.00
18765;BME280;9511;54.242;12.448;2023-04-08T08:14:16;102514.97;;;4.80;100.00
18765;BME280;9511;54.242;12.448;2023-04-08T08:16:43;102515.00;;;4.92;100.00
18765;BME280;9511;54.242;12.448;2023-04-08T08:19:10;102530.28;;;4.97;100.00
18765;BME280;9511;54.242;12.448;2023-04-08T08:21:38;102520.16;;;5.02;100.00
18765;BME280;9511;54.242;12.448;2023-04-08T08:24:06;102522.06;;;5.04;100.00
18765;BME280;9511;54.242;12.448;2023-04-08T08:26:34;102522.31;;;5.07;100.00
18765;BME280;9511;54.242;12.448;2023-04-08T08:29:02;102520.97;;;5.13;100.00
18765;BME280;9511;54.242;12.448;2023-04-08T08:31:31;102529.28;;;5.07;100.00
18765;BME280;9511;54.242;12.448;2023-04-08T08:33:58;102529.19;;;5.05;100.00
18765;BME280;9511;54.242;12.448;2023-04-08T08:36:25;102529.03;;;5.04;100.00
18765;BME280;9511;54.242;12.448;2023-04-08T08:38:53;102531.00;;;5.06;100.00
18765;BME280;9511;54.242;12.448;2023-04-08T08:41:21;102534.75;;;5.10;100.00
18765;BME280;9511;54.242;12.448;2023-04-08T08:43:48;102535.34;;;5.18;100.00
18765;BME280;9511;54.242;12.448;2023-04-08T08:46:16;102545.59;;;5.15;100.00
18765;BME280;9511;54.242;12.448;2023-04-08T08:48:45;102536.72;;;5.24;100.00
18765;BME280;9511;54.242;12.448;2023-04-08T08:51:12;102545.50;;;5.25;100.00
18765;BME280;9511;54.242;12.448;2023-04-08T08:53:40;102548.81;;;5.34;100.00
18765;BME280;9511;54.242;12.448;2023-04-08T08:56:10;102540.34;;;5.26;100.00
18765;BME280;9511;54.242;12.448;2023-04-08T08:58:38;102543.44;;;5.32;100.00
18765;BME280;9511;54.242;12.448;2023-04-08T09:01:30;102546.06;;;5.44;100.00
18765;BME280;9511;54.242;12.448;2023-04-08T09:04:18;102541.50;;;5.53;100.00
18765;BME280;9511;54.242;12.448;2023-04-08T09:06:47;102541.25;;;5.50;100.00
18765;BME280;9511;54.242;12.448;2023-04-08T09:09:15;102542.50;;;5.55;100.00
18765;BME280;9511;54.242;12.448;2023-04-08T09:11:43;102540.34;;;5.62;100.00
18765;BME280;9511;54.242;12.448;2023-04-08T09:14:18;102548.09;;;5.72;100.00
18765;BME280;9511;54.242;12.448;2023-04-08T09:16:46;102547.88;;;5.69;100.00
18765;BME280;9511;54.242;12.448;2023-04-08T09:19:13;102548.09;;;5.72;100.00
18765;BME280;9511;54.242;12.448;2023-04-08T09:21:42;102544.44;;;5.81;100.00
18765;BME280;9511;54.242;12.448;2023-04-08T09:24:26;102553.78;;;5.90;100.00
18765;BME280;9511;54.242;12.448;2023-04-08T09:26:54;102559.41;;;5.94;100.00
18765;BME280;9511;54.242;12.448;2023-04-08T09:29:22;102555.41;;;5.99;100.00
18765;BME280;9511;54.242;12.448;2023-04-08T09:31:52;102560.84;;;6.14;100.00
18765;BME280;9511;54.242;12.448;2023-04-08T09:34:20;102567.19;;;6.29;100.00
18765;BME280;9511;54.242;12.448;2023-04-08T09:36:49;102565.25;;;6.27;100.00
18765;BME280;9511;54.242;12.448;2023-04-08T09:39:20;102563.09;;;6.21;100.00
18765;BME280;9511;54.242;12.448;2023-04-08T09:41:49;102565.84;;;6.23;100.00
18765;BME280;9511;54.242;12.448;2023-04-08T09:44:18;102564.69;;;6.19;100.00
18765;BME280;9511;54.242;12.448;2023-04-08T09:46:55;102570.72;;;6.30;100.00
18765;BME280;9511;54.242;12.448;2023-04-08T09:49:25;102566.69;;;6.35;100.00
18765;BME280;9511;54.242;12.448;2023-04-08T09:51:58;102570.56;;;6.40;100.00
18765;BME280;9511;54.242;12.448;2023-04-08T09:54:38;102572.56;;;6.56;100.00
18765;BME280;9511;54.242;12.448;2023-04-08T09:57:09;102567.03;;;6.64;100.00
18765;BME280;9511;54.242;12.448;2023-04-08T09:59:43;102575.47;;;6.72;100.00
18765;BME280;9511;54.242;12.448;2023-04-08T10:02:16;102574.84;;;6.76;100.00
18765;BME280;9511;54.242;12.448;2023-04-08T10:04:47;102572.28;;;6.64;100.00
18765;BME280;9511;54.242;12.448;2023-04-08T10:07:18;102574.09;;;6.77;100.00
18765;BME280;9511;54.242;12.448;2023-04-08T10:09:45;102567.69;;;6.74;100.00
18765;BME280;9511;54.242;12.448;2023-04-08T10:12:13;102565.56;;;6.81;100.00
18765;BME280;9511;54.242;12.448;2023-04-08T10:14:41;102576.81;;;6.79;100.00
18765;BME280;9511;54.242;12.448;2023-04-08T10:17:24;102578.44;;;6.77;100.00
18765;BME280;9511;54.242;12.448;2023-04-08T10:19:52;102583.88;;;6.80;99.80
18765;BME280;9511;54.242;12.448;2023-04-08T10:22:47;102586.84;;;6.84;100.00
18765;BME280;9511;54.242;12.448;2023-04-08T10:25:28;102592.09;;;6.84;100.00
18765;BME280;9511;54.242;12.448;2023-04-08T10:27:56;102588.56;;;6.84;99.42
18765;BME280;9511;54.242;12.448;2023-04-08T10:30:40;102582.25;;;6.82;99.46
18765;BME280;9511;54.242;12.448;2023-04-08T10:33:12;102578.13;;;6.85;99.54
18765;BME280;9511;54.242;12.448;2023-04-08T10:35:43;102581.53;;;6.96;100.00
18765;BME280;9511;54.242;12.448;2023-04-08T10:38:15;102577.59;;;7.03;99.81
18765;BME280;9511;54.242;12.448;2023-04-08T10:40:43;102583.75;;;7.03;99.29
18765;BME280;9511;54.242;12.448;2023-04-08T10:43:12;102573.44;;;7.06;99.52
18765;BME280;9511;54.242;12.448;2023-04-08T10:45:40;102580.53;;;7.07;98.75
18765;BME280;9511;54.242;12.448;2023-04-08T10:48:12;102578.91;;;7.09;98.52
18765;BME280;9511;54.242;12.448;2023-04-08T10:50:39;102590.63;;;7.01;98.20
18765;BME280;9511;54.242;12.448;2023-04-08T10:53:07;102579.63;;;7.07;98.35
18765;BME280;9511;54.242;12.448;2023-04-08T10:55:35;102574.22;;;7.05;98.48
18765;BME280;9511;54.242;12.448;2023-04-08T10:58:07;102579.41;;;7.04;97.81
18765;BME280;9511;54.242;12.448;2023-04-08T11:00:36;102582.94;;;7.04;98.20
18765;BME280;9511;54.242;12.448;2023-04-08T11:03:05;102577.69;;;7.04;97.75
18765;BME280;9511;54.242;12.448;2023-04-08T11:05:34;102579.41;;;7.04;97.81
18765;BME280;9511;54.242;12.448;2023-04-08T11:08:02;102581.13;;;7.03;97.75
18765;BME280;9511;54.242;12.448;2023-04-08T11:10:37;102586.00;;;7.10;97.95
18765;BME280;9511;54.242;12.448;2023-04-08T11:13:06;102578.81;;;7.21;98.16
18765;BME280;9511;54.242;12.448;2023-04-08T11:15:35;102579.88;;;7.23;97.47
18765;BME280;9511;54.242;12.448;2023-04-08T11:18:03;102584.81;;;7.18;96.93
18765;BME280;9511;54.242;12.448;2023-04-08T11:20:31;102579.31;;;7.15;96.70
18765;BME280;9511;54.242;12.448;2023-04-08T11:23:01;102576.72;;;7.29;97.36
18765;BME280;9511;54.242;12.448;2023-04-08T11:25:29;102576.91;;;7.32;97.10
18765;BME280;9511;54.242;12.448;2023-04-08T11:27:58;102583.00;;;7.31;96.59
18765;BME280;9511;54.242;12.448;2023-04-08T11:30:26;102583.13;;;7.45;96.77
18765;BME280;9511;54.242;12.448;2023-04-08T11:32:55;102574.69;;;7.51;96.61
18765;BME280;9511;54.242;12.448;2023-04-08T11:35:22;102573.69;;;7.62;96.51
18765;BME280;9511;54.242;12.448;2023-04-08T11:37:51;102572.38;;;7.82;96.27
18765;BME280;9511;54.242;12.448;2023-04-08T11:40:20;102577.72;;;7.97;95.16
18765;BME280;9511;54.242;12.448;2023-04-08T11:42:49;102571.38;;;7.67;94.30
18765;BME280;9511;54.242;12.448;2023-04-08T11:45:19;102577.16;;;7.75;94.48
18765;BME280;9511;54.242;12.448;2023-04-08T11:47:47;102578.44;;;7.68;94.50
18765;BME280;9511;54.242;12.448;2023-04-08T11:50:22;102576.34;;;7.76;94.65
18765;BME280;9511;54.242;12.448;2023-04-08T11:52:50;102588.47;;;7.73;93.95
18765;BME280;9511;54.242;12.448;2023-04-08T11:55:22;102585.84;;;7.73;94.60
18765;BME280;9511;54.242;12.448;2023-04-08T11:57:49;102571.47;;;7.82;94.52
18765;BME280;9511;54.242;12.448;2023-04-08T12:00:19;102568.81;;;7.95;94.97
18765;BME280;9511;54.242;12.448;2023-04-08T12:02:47;102571.41;;;8.08;94.35
18765;BME280;9511;54.242;12.448;2023-04-08T12:05:14;102570.41;;;8.06;93.71
18765;BME280;9511;54.242;12.448;2023-04-08T12:07:42;102570.63;;;8.09;93.32
18765;BME280;9511;54.242;12.448;2023-04-08T12:10:10;102571.00;;;8.15;93.28
18765;BME280;9511;54.242;12.448;2023-04-08T12:12:38;102577.28;;;8.17;92.66
18765;BME280;9511;54.242;12.448;2023-04-08T12:15:07;102572.50;;;8.38;93.26
18765;BME280;9511;54.242;12.448;2023-04-08T12:17:36;102580.56;;;8.55;93.04
18765;BME280;9511;54.242;12.448;2023-04-08T12:20:04;102581.47;;;8.55;92.54
18765;BME280;9511;54.242;12.448;2023-04-08T12:22:31;102577.84;;;8.68;92.34
18765;BME280;9511;54.242;12.448;2023-04-08T12:24:59;102579.59;;;8.67;91.76
18765;BME280;9511;54.242;12.448;2023-04-08T12:27:28;102579.22;;;8.76;91.64
18765;BME280;9511;54.242;12.448;2023-04-08T12:29:55;102580.88;;;8.89;90.84
18765;BME280;9511;54.242;12.448;2023-04-08T12:32:22;102578.69;;;8.82;89.42
18765;BME280;9511;54.242;12.448;2023-04-08T12:34:51;102576.97;;;8.82;88.71
18765;BME280;9511;54.242;12.448;2023-04-08T12:37:19;102573.44;;;8.96;88.98
18765;BME280;9511;54.242;12.448;2023-04-08T12:39:46;102578.44;;;8.92;88.31
18765;BME280;9511;54.242;12.448;2023-04-08T12:42:14;102580.63;;;8.99;87.89
18765;BME280;9511;54.242;12.448;2023-04-08T12:44:42;102587.66;;;8.98;88.07
18765;BME280;9511;54.242;12.448;2023-04-08T12:47:09;102583.72;;;8.92;88.24
18765;BME280;9511;54.242;12.448;2023-04-08T12:49:36;102586.19;;;9.03;87.86
18765;BME280;9511;54.242;12.448;2023-04-08T12:52:06;102586.47;;;9.08;88.23
18765;BME280;9511;54.242;12.448;2023-04-08T12:54:33;102582.84;;;9.06;87.50
18765;BME280;9511;54.242;12.448;2023-04-08T12:57:00;102581.66;;;9.16;87.07
18765;BME280;9511;54.242;12.448;2023-04-08T12:59:28;102578.09;;;9.15;87.13
18765;BME280;9511;54.242;12.448;2023-04-08T13:01:57;102576.66;;;9.35;87.25
18765;BME280;9511;54.242;12.448;2023-04-08T13:04:24;102582.19;;;9.40;86.61
18765;BME280;9511;54.242;12.448;2023-04-08T13:06:51;102570.44;;;9.49;86.72
18765;BME280;9511;54.242;12.448;2023-04-08T13:09:20;102582.81;;;9.50;85.83
18765;BME280;9511;54.242;12.448;2023-04-08T13:11:47;102577.34;;;9.62;85.62
18765;BME280;9511;54.242;12.448;2023-04-08T13:14:14;102573.50;;;9.72;85.02
18765;BME280;9511;54.242;12.448;2023-04-08T13:16:42;102579.53;;;9.69;84.39
18765;BME280;9511;54.242;12.448;2023-04-08T13:19:09;102573.69;;;9.75;84.00
18765;BME280;9511;54.242;12.448;2023-04-08T13:21:36;102576.69;;;9.81;84.34
18765;BME280;9511;54.242;12.448;2023-04-08T13:24:04;102576.22;;;9.73;83.67
18765;BME280;9511;54.242;12.448;2023-04-08T13:26:33;102572.44;;;9.53;83.83
18765;BME280;9511;54.242;12.448;2023-04-08T13:29:00;102574.97;;;9.67;83.43
18765;BME280;9511;54.242;12.448;2023-04-08T13:31:28;102577.81;;;9.55;83.22
18765;BME280;9511;54.242;12.448;2023-04-08T13:33:55;102572.88;;;9.61;83.24
18765;BME280;9511;54.242;12.448;2023-04-08T13:36:22;102579.16;;;9.63;83.36
18765;BME280;9511;54.242;12.448;2023-04-08T13:38:49;102573.44;;;9.55;84.01
18765;BME280;9511;54.242;12.448;2023-04-08T13:41:17;102566.22;;;9.68;83.66
18765;BME280;9511;54.242;12.448;2023-04-08T13:43:47;102578.41;;;9.80;83.78
18765;BME280;9511;54.242;12.448;2023-04-08T13:46:15;102570.84;;;9.87;82.74
18765;BME280;9511;54.242;12.448;2023-04-08T13:48:42;102575.59;;;9.77;82.57
18765;BME280;9511;54.242;12.448;2023-04-08T13:51:10;102569.31;;;9.75;83.13
18765;BME280;9511;54.242;12.448;2023-04-08T13:53:38;102572.97;;;9.63;83.70
18765;BME280;9511;54.242;12.448;2023-04-08T13:56:06;102567.38;;;9.42;83.05
18765;BME280;9511;54.242;12.448;2023-04-08T13:58:33;102575.00;;;9.22;83.55
18765;BME280;9511;54.242;12.448;2023-04-08T14:01:02;102567.91;;;9.21;83.73
18765;BME280;9511;54.242;12.448;2023-04-08T14:03:30;102565.00;;;9.31;84.34
18765;BME280;9511;54.242;12.448;2023-04-08T14:05:57;102565.34;;;9.23;83.76
18765;BME280;9511;54.242;12.448;2023-04-08T14:08:25;102561.44;;;9.31;83.84
18765;BME280;9511;54.242;12.448;2023-04-08T14:10:54;102563.09;;;9.29;83.86
18765;BME280;9511;54.242;12.448;2023-04-08T14:13:22;102567.00;;;9.36;83.69
18765;BME280;9511;54.242;12.448;2023-04-08T14:15:49;102561.16;;;9.26;83.37
18765;BME280;9511;54.242;12.448;2023-04-08T14:18:18;102561.16;;;9.26;83.18
18765;BME280;9511;54.242;12.448;2023-04-08T14:20:45;102566.09;;;9.20;83.38
18765;BME280;9511;54.242;12.448;2023-04-08T14:23:13;102561.00;;;9.23;83.54
18765;BME280;9511;54.242;12.448;2023-04-08T14:25:41;102560.06;;;9.23;83.94
18765;BME280;9511;54.242;12.448;2023-04-08T14:28:09;102565.81;;;9.16;84.25
18765;BME280;9511;54.242;12.448;2023-04-08T14:30:36;102571.72;;;8.97;84.19
18765;BME280;9511;54.242;12.448;2023-04-08T14:33:03;102567.81;;;9.05;84.54
18765;BME280;9511;54.242;12.448;2023-04-08T14:35:35;102568.38;;;9.14;84.24
18765;BME280;9511;54.242;12.448;2023-04-08T14:38:02;102565.88;;;9.17;84.52
18765;BME280;9511;54.242;12.448;2023-04-08T14:40:30;102564.47;;;9.08;85.25
18765;BME280;9511;54.242;12.448;2023-04-08T14:42:57;102565.88;;;8.88;84.70
18765;BME280;9511;54.242;12.448;2023-04-08T14:45:24;102561.06;;;8.81;85.15
18765;BME280;9511;54.242;12.448;2023-04-08T14:47:52;102560.72;;;8.89;85.35
18765;BME280;9511;54.242;12.448;2023-04-08T14:50:19;102564.84;;;8.71;85.17
18765;BME280;9511;54.242;12.448;2023-04-08T14:52:48;102562.50;;;8.75;85.37
18765;BME280;9511;54.242;12.448;2023-04-08T14:55:16;102556.47;;;8.63;85.33
18765;BME280;9511;54.242;12.448;2023-04-08T14:57:43;102562.19;;;8.71;85.39
18765;BME280;9511;54.242;12.448;2023-04-08T15:00:11;102565.03;;;8.74;85.63
18765;BME280;9511;54.242;12.448;2023-04-08T15:02:39;102558.88;;;8.88;86.35
18765;BME280;9511;54.242;12.448;2023-04-08T15:05:06;102557.34;;;8.92;85.79
18765;BME280;9511;54.242;12.448;2023-04-08T15:07:34;102559.69;;;8.87;85.14
18765;BME280;9511;54.242;12.448;2023-04-08T15:10:03;102552.44;;;8.83;85.09
18765;BME280;9511;54.242;12.448;2023-04-08T15:12:30;102559.16;;;8.78;85.68
18765;BME280;9511;54.242;12.448;2023-04-08T15:14:58;102562.88;;;8.82;85.20
18765;BME280;9511;54.242;12.448;2023-04-08T15:17:25;102559.53;;;8.99;84.99
18765;BME280;9511;54.242;12.448;2023-04-08T15:19:53;102564.16;;;9.03;84.86
18765;BME280;9511;54.242;12.448;2023-04-08T15:22:20;102556.59;;;8.94;84.44
18765;BME280;9511;54.242;12.448;2023-04-08T15:24:47;102558.59;;;8.98;84.24
18765;BME280;9511;54.242;12.448;2023-04-08T15:27:16;102557.34;;;8.92;84.51
18765;BME280;9511;54.242;12.448;2023-04-08T15:29:44;102565.53;;;8.96;85.01
18765;BME280;9511;54.242;12.448;2023-04-08T15:32:12;102570.91;;;8.98;84.27
18765;BME280;9511;54.242;12.448;2023-04-08T15:34:39;102570.06;;;8.84;84.37
18765;BME280;9511;54.242;12.448;2023-04-08T15:37:06;102569.03;;;8.67;84.31
18765;BME280;9511;54.242;12.448;2023-04-08T15:39:34;102569.13;;;8.69;84.54
18765;BME280;9511;54.242;12.448;2023-04-08T15:42:01;102574.41;;;8.69;85.39
18765;BME280;9511;54.242;12.448;2023-04-08T15:44:31;102574.59;;;8.72;85.74
18765;BME280;9511;54.242;12.448;2023-04-08T15:46:58;102576.50;;;8.74;84.88
18765;BME280;9511;54.242;12.448;2023-04-08T15:49:25;102578.78;;;8.68;85.40
18765;BME280;9511;54.242;12.448;2023-04-08T15:51:53;102573.44;;;8.54;84.86
18765;BME280;9511;54.242;12.448;2023-04-08T15:54:20;102577.66;;;8.23;85.80
18765;BME280;9511;54.242;12.448;2023-04-08T15:56:47;102577.06;;;8.28;86.37
18765;BME280;9511;54.242;12.448;2023-04-08T15:59:15;102582.94;;;8.23;86.57
18765;BME280;9511;54.242;12.448;2023-04-08T16:01:43;102579.09;;;8.18;86.63
18765;BME280;9511;54.242;12.448;2023-04-08T16:04:10;102574.03;;;8.21;85.96
18765;BME280;9511;54.242;12.448;2023-04-08T16:06:37;102581.81;;;8.20;86.52